Time;durP1;ratioP1;P1;durP2;ratioP2;P2;SDS_P1;SDS_P2;PMS_P1;PMS_P2;Temp;Humidity;BMP_temperature;BMP_pressure;BME280_temperature;BME280_humidity;BME280_pressure;Samples;Min_cycle;Max_cycle;Signal;HPM_P1;HPM_P2
2022/12/18 00:01:21;;;;;;;46.70;21.30;;;;;;;-5.93;87.04;101608.91;1701138;84;27593;-49
2022/12/18 00:03:48;;;;;;;51.50;22.20;;;;;;;-5.93;87.07;101614.19;1708212;82;25445;-48
2022/12/18 00:06:16;;;;;;;49.77;21.27;;;;;;;-5.91;87.02;101617.97;1701080;84;25452;-49
2022/12/18 00:08:44;;;;;;;45.83;22.02;;;;;;;-5.87;87.08;101626.70;1707674;83;25576;-49
2022/12/18 00:11:16;;;;;;;46.08;21.15;;;;;;;-5.86;87.12;101624.88;1766620;81;25614;-48
2022/12/18 00:13:43;;;;;;;49.50;22.98;;;;;;;-5.84;87.11;101622.42;1766168;81;27532;-49
2022/12/18 00:16:14;;;;;;;47.25;21.65;;;;;;;-5.82;87.14;101630.97;1766482;81;25630;-49
2022/12/18 00:18:42;;;;;;;48.40;22.35;;;;;;;-5.80;87.11;101626.05;1766568;81;25632;-48
2022/12/18 00:21:12;;;;;;;50.30;21.40;;;;;;;-5.78;87.11;101625.38;1766535;81;26097;-49
2022/12/18 00:23:39;;;;;;;;;;;;;;;-5.77;87.08;101627.84;1769236;81;25551;-49
2022/12/18 00:26:11;;;;;;;42.85;20.15;;;;;;;-5.74;87.09;101637.22;1766547;81;27417;-48
2022/12/18 00:28:38;;;;;;;49.18;22.35;;;;;;;-5.74;87.13;101640.66;1765709;81;27540;-49
2022/12/18 00:31:09;;;;;;;50.25;23.50;;;;;;;-5.72;87.09;101642.66;1766537;81;25540;-50
2022/12/18 00:33:36;;;;;;;46.37;23.20;;;;;;;-5.71;87.06;101648.24;1765860;81;25607;-52
2022/12/18 00:36:11;;;;;;;44.58;21.45;;;;;;;-5.70;87.07;101648.58;1766552;81;25555;-49
2022/12/18 00:38:40;;;;;;;53.92;23.50;;;;;;;-5.70;87.05;101646.45;1766523;81;27500;-49
2022/12/18 00:41:08;;;;;;;44.83;21.70;;;;;;;-5.68;87.01;101658.96;1766726;81;25615;-48
2022/12/18 00:43:36;;;;;;;49.75;22.93;;;;;;;-5.69;87.01;101660.75;1766554;81;25528;-50
2022/12/18 00:46:03;;;;;;;46.23;22.73;;;;;;;-5.65;87.03;101667.86;1766465;81;25642;-50
2022/12/18 00:48:30;;;;;;;46.08;22.55;;;;;;;-5.65;86.95;101666.54;1766408;80;25827;-50
2022/12/18 00:50:56;;;;;;;43.55;22.02;;;;;;;-5.64;86.93;101663.70;1766519;81;27534;-49
2022/12/18 00:53:22;;;;;;;44.90;21.35;;;;;;;-5.63;86.88;101662.73;1766415;81;25431;-51
2022/12/18 00:55:48;;;;;;;43.25;20.65;;;;;;;-5.65;86.76;101669.99;1766570;81;25515;-50
2022/12/18 00:58:18;;;;;;;47.48;21.97;;;;;;;-5.64;86.76;101668.17;1766456;81;25505;-50
2022/12/18 01:00:44;;;;;;;39.92;20.70;;;;;;;-5.62;86.85;101663.55;1766684;81;25581;-50
2022/12/18 01:03:15;;;;;;;46.20;20.43;;;;;;;-5.60;86.90;101669.97;1766561;81;27456;-49
2022/12/18 01:05:42;;;;;;;44.38;19.90;;;;;;;-5.59;86.94;101673.76;1766427;81;25559;-51
2022/12/18 01:08:08;;;;;;;38.58;19.05;;;;;;;-5.57;86.91;101685.45;1766504;81;25731;-48
2022/12/18 01:10:35;;;;;;;42.35;19.15;;;;;;;-5.58;86.82;101684.64;1766486;81;25563;-49
2022/12/18 01:13:01;;;;;;;41.77;18.80;;;;;;;-5.58;86.75;101688.60;1738558;81;25585;-48
2022/12/18 01:15:27;;;;;;;40.45;18.10;;;;;;;-5.58;86.79;101696.51;1766598;81;27524;-48
2022/12/18 01:17:54;;;;;;;45.12;18.37;;;;;;;-5.56;86.80;101689.75;1766480;81;25399;-49
2022/12/18 01:20:21;;;;;;;40.20;18.57;;;;;;;-5.55;86.83;101691.37;1766563;81;25415;-48
2022/12/18 01:22:48;;;;;;;38.55;18.45;;;;;;;-5.56;86.85;101689.75;1766527;81;25923;-49
2022/12/18 01:25:14;;;;;;;39.10;18.67;;;;;;;-5.53;86.80;101692.88;1766583;81;25710;-49
2022/12/18 01:27:40;;;;;;;37.13;18.20;;;;;;;-5.54;86.69;101693.04;1766526;81;27553;-49
2022/12/18 01:30:09;;;;;;;37.53;17.15;;;;;;;-5.54;86.72;101694.36;1766607;81;27362;-48
2022/12/18 01:32:35;;;;;;;38.85;17.25;;;;;;;-5.54;86.70;101700.45;1766947;81;25476;-48
2022/12/18 01:35:01;;;;;;;38.23;17.37;;;;;;;-5.53;86.75;101704.73;1766719;81;31987;-48
2022/12/18 01:37:28;;;;;;;37.67;18.90;;;;;;;-5.51;86.78;101717.76;1766575;81;25441;-49
2022/12/18 01:39:54;;;;;;;41.77;19.32;;;;;;;-5.51;86.76;101719.08;1766493;81;27440;-49
2022/12/18 01:42:21;;;;;;;38.98;18.60;;;;;;;-5.49;86.83;101718.41;1766422;81;25430;-49
2022/12/18 01:45:08;;;;;;;32.03;17.00;;;;;;;-5.48;86.84;101719.56;1766474;81;25528;-48
2022/12/18 01:48:03;;;;;;;33.53;17.82;;;;;;;-5.47;86.82;101726.47;1674878;84;26031;-48
2022/12/18 01:50:40;;;;;;;34.78;17.10;;;;;;;-5.44;86.90;101730.09;1679052;84;25629;-52
2022/12/18 01:53:14;;;;;;;34.33;17.92;;;;;;;-5.44;86.84;101739.32;1679046;84;27498;-49
2022/12/18 01:55:50;;;;;;;45.05;18.48;;;;;;;-5.44;86.77;101738.50;1678921;84;25767;-49
2022/12/18 01:58:21;;;;;;;34.80;17.07;;;;;;;-5.45;86.69;101739.48;1678981;84;25193;-50
2022/12/18 02:00:47;;;;;;;36.68;15.98;;;;;;;-5.46;86.72;101741.81;1678903;85;25408;-49
2022/12/18 02:03:13;;;;;;;32.13;15.58;;;;;;;-5.46;86.76;101749.73;1694142;84;25473;-49
2022/12/18 02:06:07;;;;;;;34.45;16.90;;;;;;;-5.47;86.85;101755.47;1678951;84;29706;-49
2022/12/18 02:09:12;;;;;;;34.00;16.73;;;;;;;-5.44;86.95;101758.28;1679074;84;25426;-49
2022/12/18 02:11:49;;;;;;;39.95;16.20;;;;;;;-5.42;87.05;101761.58;1678908;85;25381;-49
2022/12/18 02:14:47;;;;;;;37.48;16.02;;;;;;;-5.41;87.02;101759.28;1678953;85;26208;-50
2022/12/18 02:17:25;;;;;;;33.58;16.35;;;;;;;-5.39;87.05;101759.11;1679021;84;25604;-49
2022/12/18 02:20:18;;;;;;;38.90;17.12;;;;;;;-5.37;87.04;101763.22;1678956;85;27560;-49
2022/12/18 02:23:31;;;;;;;31.02;15.00;;;;;;;-5.36;87.08;101764.88;1670800;85;25598;-49
2022/12/18 02:26:08;;;;;;;29.37;14.30;;;;;;;-5.34;87.03;101768.16;1593040;88;25680;-53
2022/12/18 02:28:40;;;;;;;32.83;15.90;;;;;;;-5.34;86.96;101783.98;1591679;90;27682;-50
2022/12/18 02:31:12;;;;;;;31.68;14.47;;;;;;;-5.36;87.01;101778.06;1618093;88;25476;-49
2022/12/18 02:33:39;;;;;;;36.23;15.95;;;;;;;-5.33;87.06;101784.80;1584008;90;29650;-49
2022/12/18 02:36:08;;;;;;;37.10;17.35;;;;;;;-5.33;87.04;101782.16;1589747;89;25514;-52
2022/12/18 02:38:36;;;;;;;34.38;16.23;;;;;;;-5.32;87.04;101789.91;1590021;89;25514;-49
2022/12/18 02:41:04;;;;;;;39.75;16.67;;;;;;;-5.31;87.05;101787.61;1611129;89;25623;-48
2022/12/18 02:43:31;;;;;;;35.25;17.23;;;;;;;-5.29;87.05;101783.49;1611148;89;25666;-48
2022/12/18 02:46:00;;;;;;;38.08;17.07;;;;;;;-5.30;86.98;101787.92;1611082;89;27517;-49
2022/12/18 02:48:33;;;;;;;36.35;16.37;;;;;;;-5.30;86.89;101793.20;1606753;89;25670;-49
2022/12/18 02:51:26;;;;;;;36.20;16.77;;;;;;;-5.28;86.97;101800.95;1647649;87;25606;-49
2022/12/18 02:54:04;;;;;;;38.10;18.37;;;;;;;-5.26;86.96;101802.45;1648064;86;25516;-48
2022/12/18 02:56:38;;;;;;;38.83;17.70;;;;;;;-5.23;86.94;101805.73;1647394;87;25532;-48
2022/12/18 02:59:28;;;;;;;42.08;19.25;;;;;;;-5.23;86.90;101807.05;1624789;87;27435;-48
2022/12/18 03:02:24;;;;;;;38.78;18.73;;;;;;;-5.23;86.81;101809.19;1653933;85;25686;-49
2022/12/18 03:05:08;;;;;;;42.38;19.70;;;;;;;-5.25;86.78;101813.81;1723249;83;25556;-49
2022/12/18 03:07:41;;;;;;;40.20;18.12;;;;;;;-5.26;86.65;101830.65;1721795;83;25570;-49
2022/12/18 03:10:12;;;;;;;34.92;16.60;;;;;;;-5.28;86.66;101834.77;1728298;82;25486;-48
2022/12/18 03:12:44;;;;;;;42.85;18.02;;;;;;;-5.28;86.62;101840.52;1723224;83;29739;-48
2022/12/18 03:15:16;;;;;;;38.85;17.87;;;;;;;-5.26;86.72;101846.48;1721946;82;25391;-46
2022/12/18 03:18:03;;;;;;;35.92;15.83;;;;;;;-5.27;86.70;101847.45;1704959;83;25476;-46
2022/12/18 03:20:34;;;;;;;35.63;16.90;;;;;;;-5.28;86.53;101851.92;1723185;83;27725;-48
2022/12/18 03:23:11;;;;;;;33.50;17.10;;;;;;;-5.29;86.41;101852.89;1723265;83;25551;-48
2022/12/18 03:25:43;;;;;;;32.75;16.12;;;;;;;-5.31;86.24;101846.97;1723217;83;27474;-48
2022/12/18 03:28:14;;;;;;;32.50;15.30;;;;;;;-5.34;86.03;101853.89;1723160;82;25610;-48
2022/12/18 03:30:43;;;;;;;28.60;14.30;;;;;;;-5.36;85.84;101850.59;1723266;83;25398;-50
2022/12/18 03:33:23;;;;;;;35.40;17.02;;;;;;;-5.42;85.64;101860.47;1723283;82;25619;-48
2022/12/18 03:35:50;;;;;;;31.85;16.15;;;;;;;-5.46;85.59;101859.98;1723383;83;25608;-49
2022/12/18 03:38:17;;;;;;;30.25;14.87;;;;;;;-5.48;85.50;101859.83;1723250;82;28167;-49
2022/12/18 03:41:00;;;;;;;31.73;15.10;;;;;;;-5.51;85.46;101860.97;1722985;82;25875;-48
2022/12/18 03:43:47;;;;;;;31.07;15.50;;;;;;;-5.52;85.50;101870.36;1723215;83;25382;-48
2022/12/18 03:46:50;;;;;;;29.60;14.90;;;;;;;-5.52;85.63;101874.31;1723221;83;25585;-47
2022/12/18 03:49:27;;;;;;;30.00;14.87;;;;;;;-5.54;85.55;101881.57;1750478;80;25378;-48
2022/12/18 03:52:08;;;;;;;30.00;15.28;;;;;;;-5.55;85.52;101886.03;1766565;81;27450;-49
2022/12/18 03:54:37;;;;;;;33.83;14.87;;;;;;;-5.55;85.51;101886.03;1766360;81;25709;-49
2022/12/18 03:57:09;;;;;;;30.52;14.78;;;;;;;-5.56;85.44;101888.83;1766777;81;25518;-48
2022/12/18 03:59:37;;;;;;;29.18;15.43;;;;;;;-5.58;85.39;101885.50;1764050;81;25539;-51
2022/12/18 04:02:07;;;;;;;28.20;14.95;;;;;;;-5.60;85.30;101888.80;1766553;81;25578;-48
2022/12/18 04:04:37;;;;;;;28.80;14.38;;;;;;;-5.64;85.29;101885.17;1766603;81;27491;-48
2022/12/18 04:07:05;;;;;;;30.12;14.70;;;;;;;-5.68;85.18;101887.81;1766493;81;25581;-48
2022/12/18 04:09:34;;;;;;;28.15;14.53;;;;;;;-5.70;85.09;101905.61;1766543;81;25602;-48
2022/12/18 04:12:00;;;;;;;29.50;13.90;;;;;;;-5.72;84.95;101903.63;1766779;81;25566;-48
2022/12/18 04:14:26;;;;;;;31.23;15.20;;;;;;;-5.77;84.87;101908.56;1766523;81;28944;-48
2022/12/18 04:16:52;;;;;;;25.90;14.13;;;;;;;-5.81;84.87;101909.85;1766507;81;27439;-48
2022/12/18 04:19:18;;;;;;;30.00;13.85;;;;;;;-5.80;84.92;101914.15;1766440;81;25520;-48
2022/12/18 04:21:45;;;;;;;31.35;13.85;;;;;;;-5.83;84.93;101916.60;1766533;81;25518;-49
2022/12/18 04:24:11;;;;;;;29.55;14.98;;;;;;;-5.85;84.90;101910.67;1738384;81;26548;-50
2022/12/18 04:26:38;;;;;;;27.17;13.53;;;;;;;-5.86;84.86;101912.96;1766552;81;25604;-48
2022/12/18 04:29:04;;;;;;;29.70;15.15;;;;;;;-5.86;84.98;101916.10;1738387;81;27555;-50
2022/12/18 04:31:30;;;;;;;27.32;13.53;;;;;;;-5.86;85.01;101930.59;1766417;81;25859;-51
2022/12/18 04:33:57;;;;;;;31.80;14.85;;;;;;;-5.87;84.95;101936.88;1766545;81;25536;-49
2022/12/18 04:36:27;;;;;;;27.73;14.05;;;;;;;-5.90;84.92;101943.77;1766477;81;25556;-48
2022/12/18 04:38:53;;;;;;;25.27;13.35;;;;;;;-5.91;84.96;101948.20;1766683;81;25393;-48
2022/12/18 04:41:20;;;;;;;27.85;14.03;;;;;;;-5.90;84.98;101962.22;1766492;81;29606;-48
2022/12/18 04:43:46;;;;;;;28.55;13.90;;;;;;;-5.91;85.05;101965.33;1766412;81;25397;-49
2022/12/18 04:46:12;;;;;;;27.35;13.22;;;;;;;-5.89;85.01;101963.85;1766478;81;25612;-48
2022/12/18 04:48:39;;;;;;;24.37;13.45;;;;;;;-5.91;85.00;101964.52;1766344;81;25507;-50
2022/12/18 04:51:07;;;;;;;28.90;14.63;;;;;;;-5.91;84.92;101965.33;1766504;81;25533;-49
2022/12/18 04:53:34;;;;;;;29.90;13.68;;;;;;;-5.91;84.94;101968.46;1766523;81;27488;-48
2022/12/18 04:56:10;;;;;;;29.65;13.80;;;;;;;-5.92;85.00;101972.92;1766506;81;25987;-48
2022/12/18 04:58:38;;;;;;;29.67;14.45;;;;;;;-5.94;85.06;101977.53;1766549;81;25560;-47
2022/12/18 05:01:07;;;;;;;28.70;13.98;;;;;;;-5.92;85.00;101980.83;1766457;81;25467;-50
2022/12/18 05:03:35;;;;;;;19.67;10.10;;;;;;;-5.92;84.96;101974.23;1766816;81;25492;-49
2022/12/18 05:06:01;;;;;;;31.55;13.68;;;;;;;-5.94;84.92;101978.00;1766441;81;27414;-47
2022/12/18 05:08:28;;;;;;;28.62;14.33;;;;;;;-5.94;84.97;101980.16;1766409;81;25510;-47
2022/12/18 05:11:03;;;;;;;29.67;14.15;;;;;;;-5.94;85.02;101981.95;1766483;81;25345;-49
2022/12/18 05:13:31;;;;;;;30.32;13.85;;;;;;;-5.93;85.04;101985.75;1766450;81;26064;-48
2022/12/18 05:15:58;;;;;;;27.10;13.98;;;;;;;-5.94;84.84;101989.86;1697007;83;25560;-48
2022/12/18 05:18:25;;;;;;;28.05;13.65;;;;;;;-5.98;84.85;101997.28;1696824;83;27606;-48
2022/12/18 05:20:53;;;;;;;28.27;13.48;;;;;;;-5.97;84.76;102004.72;1696742;84;25631;-49
2022/12/18 05:23:22;;;;;;;26.52;12.50;;;;;;;-5.99;84.72;101998.76;1696820;84;25674;-49
2022/12/18 05:25:59;;;;;;;27.30;14.40;;;;;;;-6.00;84.67;102008.48;1696756;84;25557;-48
2022/12/18 05:28:30;;;;;;;28.83;12.63;;;;;;;-6.02;84.59;102009.95;1697740;83;25417;-48
2022/12/18 05:30:59;;;;;;;27.87;13.60;;;;;;;-6.03;84.62;102014.91;1714346;83;27450;-47
2022/12/18 05:33:30;;;;;;;28.42;13.78;;;;;;;-6.04;84.60;102013.74;1766118;81;25442;-48
2022/12/18 05:36:02;;;;;;;26.33;13.28;;;;;;;-6.06;84.62;102024.44;1766464;81;25359;-48
2022/12/18 05:38:30;;;;;;;26.07;13.45;;;;;;;-6.07;84.61;102029.86;1714090;81;26176;-48
2022/12/18 05:40:58;;;;;;;28.60;15.18;;;;;;;-6.08;84.62;102030.36;1738406;81;25481;-51
2022/12/18 05:43:27;;;;;;;26.35;13.45;;;;;;;-6.07;84.76;102033.81;1766480;81;27446;-49
2022/12/18 05:45:55;;;;;;;29.75;13.83;;;;;;;-6.06;84.79;102043.34;1766491;81;28926;-48
2022/12/18 05:48:22;;;;;;;31.77;14.68;;;;;;;-6.05;84.80;102038.43;1766472;81;25559;-49
2022/12/18 05:50:50;;;;;;;26.07;13.55;;;;;;;-6.05;84.80;102035.80;1766397;81;25531;-48
2022/12/18 05:53:20;;;;;;;31.30;14.85;;;;;;;-6.05;84.79;102043.70;1766624;81;25536;-50
2022/12/18 05:55:48;;;;;;;35.13;14.43;;;;;;;-6.05;84.75;102048.47;1766469;81;27523;-49
2022/12/18 05:58:16;;;;;;;30.80;14.25;;;;;;;-6.04;84.79;102049.31;1738365;81;25791;-48
2022/12/18 06:00:46;;;;;;;34.43;15.03;;;;;;;-6.03;84.71;102057.06;1766540;81;25382;-51
2022/12/18 06:03:13;;;;;;;28.32;14.45;;;;;;;-6.06;84.61;102062.64;1766512;81;25578;-47
2022/12/18 06:05:44;;;;;;;31.75;15.08;;;;;;;-6.06;84.61;102072.33;1738351;81;25589;-52
2022/12/18 06:08:12;;;;;;;34.98;15.23;;;;;;;-6.07;84.71;102069.38;1766371;80;27539;-51
2022/12/18 06:10:40;;;;;;;25.73;14.60;;;;;;;-6.07;84.76;102068.88;1766651;81;25216;-52
2022/12/18 06:13:07;;;;;;;31.82;15.50;;;;;;;-6.06;84.64;102074.50;1766388;81;25557;-52
2022/12/18 06:15:38;;;;;;;34.58;17.60;;;;;;;-6.07;84.67;102079.42;1766423;81;25478;-49
2022/12/18 06:18:05;;;;;;;30.05;14.68;;;;;;;-6.06;84.67;102077.60;1766524;81;25407;-49
2022/12/18 06:20:32;;;;;;;22.20;11.33;;;;;;;-6.07;84.62;102087.33;1766486;81;27384;-50
2022/12/18 06:22:58;;;;;;;27.48;12.73;;;;;;;-6.08;84.44;102084.84;1766398;81;25587;-48
2022/12/18 06:25:24;;;;;;;25.52;12.98;;;;;;;-6.10;84.31;102091.58;1766422;81;25549;-49
2022/12/18 06:27:51;;;;;;;22.70;11.83;;;;;;;-6.10;84.29;102085.49;1766396;81;25556;-48
2022/12/18 06:30:18;;;;;;;27.05;13.18;;;;;;;-6.12;84.33;102094.87;1766437;81;25529;-48
2022/12/18 06:32:44;;;;;;;25.70;12.80;;;;;;;-6.13;84.35;102099.81;1766585;81;27552;-48
2022/12/18 06:35:10;;;;;;;24.82;13.10;;;;;;;-6.12;84.43;102105.41;1766360;81;25433;-48
2022/12/18 06:37:37;;;;;;;24.80;12.37;;;;;;;-6.13;84.43;102105.55;1766430;81;25598;-50
2022/12/18 06:40:06;;;;;;;22.70;11.50;;;;;;;-6.13;84.37;102111.67;1766435;81;25634;-48
2022/12/18 06:42:32;;;;;;;25.72;12.78;;;;;;;-6.13;84.46;102122.21;1766644;81;25442;-48
2022/12/18 06:44:58;;;;;;;27.13;13.35;;;;;;;-6.13;84.49;102122.68;1766604;81;27516;-51
2022/12/18 06:47:25;;;;;;;22.95;11.45;;;;;;;-6.12;84.48;102130.43;1766309;81;25767;-52
2022/12/18 06:49:51;;;;;;;24.90;12.63;;;;;;;-6.12;84.43;102142.79;1763945;81;25607;-50
2022/12/18 06:52:17;;;;;;;24.25;12.37;;;;;;;-6.12;84.40;102148.06;1761124;81;25557;-49
2022/12/18 06:54:44;;;;;;;24.30;12.45;;;;;;;-6.15;84.43;102146.54;1761054;81;25402;-49
2022/12/18 06:57:10;;;;;;;22.02;10.82;;;;;;;-6.13;84.44;102147.70;1761117;81;27518;-54
2022/12/18 06:59:36;;;;;;;25.48;12.23;;;;;;;-6.13;84.49;102149.88;1741688;81;25733;-51
2022/12/18 07:02:02;;;;;;;23.25;11.68;;;;;;;-6.13;84.54;102155.61;1761202;81;25397;-48
2022/12/18 07:04:30;;;;;;;23.03;12.23;;;;;;;-6.13;84.50;102147.70;1761126;81;32834;-49
2022/12/18 07:06:57;;;;;;;29.00;13.78;;;;;;;-6.12;84.54;102165.19;1761029;81;25613;-49
2022/12/18 07:09:24;;;;;;;23.77;12.68;;;;;;;-6.15;84.54;102167.61;1761016;81;29678;-49
2022/12/18 07:11:50;;;;;;;31.97;15.30;;;;;;;-6.12;84.59;102170.45;1760946;81;25742;-50
2022/12/18 07:14:17;;;;;;;40.73;15.85;;;;;;;-6.11;84.67;102182.16;1760989;81;25424;-48
2022/12/18 07:16:43;;;;;;;33.78;15.70;;;;;;;-6.11;84.66;102176.89;1761016;81;26086;-50
2022/12/18 07:19:09;;;;;;;32.30;14.28;;;;;;;-6.10;84.65;102187.75;1761037;81;25385;-49
2022/12/18 07:21:36;;;;;;;29.63;14.90;;;;;;;-6.10;84.51;102189.56;1760991;81;27639;-47
2022/12/18 07:24:03;;;;;;;33.70;16.17;;;;;;;-6.12;84.37;102198.94;1760933;81;25562;-49
2022/12/18 07:26:30;;;;;;;32.30;14.53;;;;;;;-6.14;84.33;102206.17;1761121;81;25612;-49
2022/12/18 07:28:58;;;;;;;30.90;15.03;;;;;;;-6.15;84.51;102205.81;1761136;81;25558;-50
2022/12/18 07:31:26;;;;;;;34.40;15.68;;;;;;;-6.14;84.57;102208.80;1761200;81;25607;-49
2022/12/18 07:33:53;;;;;;;31.15;15.05;;;;;;;-6.12;84.64;102207.34;1761185;81;27534;-49
2022/12/18 07:36:23;;;;;;;36.58;18.82;;;;;;;-6.10;84.76;102214.59;1761076;81;25520;-52
2022/12/18 07:38:52;;;;;;;40.75;16.75;;;;;;;-6.09;84.90;102218.39;1761142;81;25562;-48
2022/12/18 07:41:19;;;;;;;24.05;11.83;;;;;;;-6.08;85.13;102214.80;1761281;81;26958;-48
2022/12/18 07:43:47;;;;;;;33.92;17.87;;;;;;;-5.99;85.25;102216.16;1761178;81;25611;-48
2022/12/18 07:46:15;;;;;;;42.33;18.40;;;;;;;-5.94;85.32;102217.81;1761089;81;27512;-52
2022/12/18 07:48:44;;;;;;;37.00;16.57;;;;;;;-5.92;85.16;102212.74;1761304;81;25762;-49
2022/12/18 07:51:12;;;;;;;41.60;17.57;;;;;;;-5.90;85.09;102214.73;1761358;81;25516;-49
2022/12/18 07:53:39;;;;;;;39.50;18.55;;;;;;;-5.86;85.30;102225.30;1761124;81;25552;-48
2022/12/18 07:56:11;;;;;;;39.60;18.70;;;;;;;-5.80;85.39;102231.78;1761197;81;25188;-50
2022/12/18 07:58:39;;;;;;;42.95;18.62;;;;;;;-5.76;85.28;102233.12;1761222;81;27549;-50
2022/12/18 08:01:10;;;;;;;43.08;19.05;;;;;;;-5.74;85.27;102231.15;1761091;81;25524;-52
2022/12/18 08:03:40;;;;;;;40.45;19.23;;;;;;;-5.72;84.97;102237.59;1761202;81;25602;-49
2022/12/18 08:06:10;;;;;;;42.62;18.48;;;;;;;-5.73;84.78;102241.22;1761251;81;25525;-53
2022/12/18 08:08:37;;;;;;;42.55;19.02;;;;;;;-5.69;84.96;102253.92;1761230;81;25525;-53
2022/12/18 08:11:05;;;;;;;45.75;19.50;;;;;;;-5.66;84.96;102266.81;1761155;81;27531;-49
2022/12/18 08:13:32;;;;;;;42.15;19.92;;;;;;;-5.66;84.75;102269.95;1761213;81;25627;-50
2022/12/18 08:16:04;;;;;;;44.50;20.92;;;;;;;-5.63;84.77;102264.37;1761107;81;25553;-48
2022/12/18 08:18:35;;;;;;;41.02;19.52;;;;;;;-5.61;84.97;102263.72;1761204;81;25970;-48
2022/12/18 08:21:12;;;;;;;40.45;18.37;;;;;;;-5.58;85.00;102258.62;1741599;81;25415;-49
2022/12/18 08:23:40;;;;;;;46.15;20.37;;;;;;;-5.55;84.92;102267.08;1761153;81;28077;-50
2022/12/18 08:26:07;;;;;;;49.73;21.20;;;;;;;-5.50;84.98;102262.64;1760933;81;27336;-48
2022/12/18 08:28:35;;;;;;;50.12;21.23;;;;;;;-5.49;84.91;102269.08;1761120;81;25422;-47
2022/12/18 08:31:05;;;;;;;48.68;20.68;;;;;;;-5.45;84.96;102269.12;1761233;81;25518;-49
2022/12/18 08:33:32;;;;;;;57.38;23.42;;;;;;;-5.39;85.17;102273.45;1761184;81;25655;-50
2022/12/18 08:36:01;;;;;;;51.63;21.65;;;;;;;-5.35;85.42;102274.28;1761166;81;27692;-52
2022/12/18 08:38:29;;;;;;;59.40;22.60;;;;;;;-5.33;85.03;102282.05;1761217;81;25369;-49
2022/12/18 08:41:06;;;;;;;52.88;21.87;;;;;;;-5.30;84.78;102292.30;1761284;81;25550;-52
2022/12/18 08:46:23;;;;;;;55.78;21.02;;;;;;;-5.29;84.49;102299.23;1761172;81;25135;-48
2022/12/18 08:48:55;;;;;;;52.95;21.35;;;;;;;-5.34;84.12;102298.88;1761172;81;27451;-49
2022/12/18 08:51:24;;;;;;;47.75;20.43;;;;;;;-5.36;84.30;102300.34;1761013;80;25421;-50
2022/12/18 08:53:50;;;;;;;59.03;21.35;;;;;;;-5.36;84.56;102306.94;1761254;81;25426;-50
2022/12/18 08:56:17;;;;;;;64.17;24.50;;;;;;;-5.35;84.63;102313.85;1761100;81;25600;-49
2022/12/18 08:58:45;;;;;;;56.48;23.02;;;;;;;-5.34;84.70;102322.11;1761153;81;25551;-49
2022/12/18 09:01:14;;;;;;;82.97;31.20;;;;;;;-5.31;84.96;102318.33;1761084;81;27509;-51
2022/12/18 09:03:42;;;;;;;74.72;28.87;;;;;;;-5.28;85.08;102319.34;1761161;81;27291;-50
2022/12/18 09:06:08;;;;;;;66.00;25.80;;;;;;;-5.25;84.99;102316.40;1761093;81;25560;-49
2022/12/18 09:08:36;;;;;;;61.55;25.57;;;;;;;-5.23;85.13;102314.94;1761000;81;25628;-52
2022/12/18 09:11:07;;;;;;;64.25;24.40;;;;;;;-5.20;85.09;102318.59;1761139;81;25551;-49
2022/12/18 09:13:33;;;;;;;64.12;25.65;;;;;;;-5.16;85.20;102330.00;1760449;81;27455;-50
2022/12/18 09:16:04;;;;;;;68.95;26.17;;;;;;;-5.14;85.02;102329.82;1761051;81;25374;-51
2022/12/18 09:18:30;;;;;;;70.03;27.22;;;;;;;-5.10;85.31;102323.27;1761172;81;25429;-50
2022/12/18 09:20:56;;;;;;;69.72;26.60;;;;;;;-5.05;85.45;102325.45;1761132;81;25614;-47
2022/12/18 09:23:24;;;;;;;73.37;27.00;;;;;;;-4.99;85.68;102328.77;1761047;81;25525;-51
2022/12/18 09:25:54;;;;;;;73.60;28.05;;;;;;;-4.94;85.53;102328.66;1741726;81;28276;-48
2022/12/18 09:28:21;;;;;;;73.95;29.65;;;;;;;-4.87;85.93;102328.83;1760128;81;25456;-49
2022/12/18 09:30:50;;;;;;;79.77;29.13;;;;;;;-4.79;85.91;102326.25;1741719;81;25625;-49
2022/12/18 09:33:19;;;;;;;69.85;27.87;;;;;;;-4.71;85.62;102330.75;1761094;81;25499;-52
2022/12/18 09:35:47;;;;;;;68.50;28.05;;;;;;;-4.74;85.11;102329.23;1761341;81;25442;-49
2022/12/18 09:38:18;;;;;;;65.80;28.23;;;;;;;-4.69;85.50;102322.99;1761441;81;27485;-48
2022/12/18 09:40:52;;;;;;;80.62;28.60;;;;;;;-4.65;85.10;102335.89;1760978;81;25282;-48
2022/12/18 09:43:27;;;;;;;73.80;27.25;;;;;;;-4.65;85.23;102335.89;1760403;81;25454;-50
2022/12/18 09:45:58;;;;;;;71.65;28.45;;;;;;;-4.58;85.49;102332.95;1761074;81;25684;-49
2022/12/18 09:48:29;;;;;;;74.27;27.90;;;;;;;-4.61;84.71;102329.33;1760798;81;25369;-50
2022/12/18 09:51:01;;;;;;;74.92;31.60;;;;;;;-4.63;85.08;102333.44;1760734;81;27552;-47
2022/12/18 09:53:32;;;;;;;76.07;29.98;;;;;;;-4.59;85.18;102332.63;1741492;81;25423;-48
2022/12/18 09:56:00;;;;;;;70.95;29.77;;;;;;;-4.54;85.70;102334.30;1761088;81;25453;-48
2022/12/18 09:58:44;;;;;;;81.43;30.47;;;;;;;-4.46;85.74;102336.13;1761261;81;25572;-48
2022/12/18 10:01:16;;;;;;;73.78;25.77;;;;;;;-4.39;85.83;102343.28;1761108;81;25625;-49
2022/12/18 10:03:43;;;;;;;73.60;27.98;;;;;;;-4.38;85.20;102346.23;1760224;81;27463;-48
2022/12/18 10:06:20;;;;;;;79.27;29.23;;;;;;;-4.41;84.88;102347.05;1760968;81;25379;-49
2022/12/18 10:09:04;;;;;;;73.80;29.70;;;;;;;-4.34;85.66;102348.09;1760879;81;25538;-49
2022/12/18 10:11:51;;;;;;;68.15;28.42;;;;;;;-4.25;85.86;102338.37;1760994;81;25646;-48
2022/12/18 10:14:41;;;;;;;68.62;26.48;;;;;;;-4.19;85.52;102343.85;1760447;81;25436;-50
2022/12/18 10:17:31;;;;;;;73.65;28.92;;;;;;;-4.17;85.30;102342.34;1761152;81;27551;-51
2022/12/18 10:20:24;;;;;;;70.67;26.73;;;;;;;-4.11;85.52;102331.64;1759998;81;25446;-51
2022/12/18 10:23:36;;;;;;;64.70;27.75;;;;;;;-4.03;85.68;102331.66;1760991;81;25395;-50
2022/12/18 10:26:07;;;;;;;64.92;27.20;;;;;;;-3.92;85.67;102337.12;1760126;81;25884;-49
2022/12/18 10:28:40;;;;;;;68.62;27.75;;;;;;;-3.94;84.90;102343.90;1761201;81;25575;-51
2022/12/18 10:31:20;;;;;;;66.55;26.48;;;;;;;-3.96;84.38;102357.78;1761176;81;27653;-51
2022/12/18 10:33:47;;;;;;;68.20;28.27;;;;;;;-4.00;84.36;102355.11;1761056;81;27385;-53
2022/12/18 10:36:15;;;;;;;72.35;28.95;;;;;;;-3.95;85.00;102361.59;1761125;81;25385;-52
2022/12/18 10:38:41;;;;;;;64.20;26.15;;;;;;;-3.86;85.57;102359.78;1761115;81;25792;-50
2022/12/18 10:41:30;;;;;;;57.60;24.40;;;;;;;-3.77;85.70;102365.91;1761189;81;25443;-53
2022/12/18 10:44:18;;;;;;;53.45;22.60;;;;;;;-3.69;85.63;102355.35;1761231;81;28163;-51
2022/12/18 10:46:52;;;;;;;63.08;24.82;;;;;;;-3.60;85.18;102361.47;1761199;81;25259;-50
2022/12/18 10:49:32;;;;;;;62.58;25.32;;;;;;;-3.58;84.32;102358.98;1761225;81;25580;-51
2022/12/18 10:52:13;;;;;;;62.60;24.20;;;;;;;-3.58;84.28;102356.84;1761132;81;25706;-48
2022/12/18 10:54:40;;;;;;;59.85;24.85;;;;;;;-3.48;85.21;102349.56;1760899;81;25442;-48
2022/12/18 10:57:30;;;;;;;64.12;27.80;;;;;;;-3.36;85.35;102359.84;1761142;81;27504;-50
2022/12/18 10:59:59;;;;;;;65.97;27.52;;;;;;;-3.27;85.35;102366.77;1760801;81;25755;-48
2022/12/18 11:02:35;;;;;;;54.40;25.70;;;;;;;-3.23;84.75;102360.98;1761479;81;25389;-52
2022/12/18 11:05:24;;;;;;;61.15;26.23;;;;;;;-3.20;84.46;102362.48;1761290;81;26229;-49
2022/12/18 11:07:53;;;;;;;60.85;25.50;;;;;;;-3.16;84.39;102357.69;1761499;81;25456;-51
2022/12/18 11:10:22;;;;;;;;;;;;;;;-3.10;84.35;102359.16;1763932;81;27575;-47
2022/12/18 11:12:49;;;;;;;61.87;26.30;;;;;;;-3.05;84.35;102358.16;1761391;81;25466;-48
2022/12/18 11:15:21;;;;;;;68.85;28.85;;;;;;;-2.97;84.44;102363.12;1761192;81;25612;-49
2022/12/18 11:17:51;;;;;;;75.42;29.80;;;;;;;-2.93;84.33;102365.75;1760003;81;25561;-48
2022/12/18 11:20:32;;;;;;;64.75;28.42;;;;;;;-2.92;84.13;102365.58;1761215;81;25406;-47
2022/12/18 11:23:06;;;;;;;66.77;30.08;;;;;;;-2.88;83.87;102370.89;1761173;81;28070;-47
2022/12/18 11:25:34;;;;;;;71.60;29.15;;;;;;;-2.86;83.62;102377.31;1761070;81;25553;-47
2022/12/18 11:28:25;;;;;;;66.00;31.07;;;;;;;-2.83;83.66;102383.60;1761111;81;25435;-49
2022/12/18 11:31:18;;;;;;;61.88;28.02;;;;;;;-2.78;83.49;102381.78;1701307;84;26396;-47